Time;durP1;ratioP1;P1;durP2;ratioP2;P2;SDS_P1;SDS_P2;PMS_P1;PMS_P2;Temp;Humidity;BMP_temperature;BMP_pressure;BME280_temperature;BME280_humidity;BME280_pressure;Samples;Min_cycle;Max_cycle;Signal;HPM_P1;HPM_P2
2023/05/09 00:01:48;;;;;;;6.22;5.68;;;10.00;99.90;;;;;;5073105;28;20084;-57
2023/05/09 00:04:15;;;;;;;12.23;5.95;;;10.00;99.90;;;;;;5072683;28;20375;-56
2023/05/09 00:06:40;;;;;;;7.22;5.57;;;9.90;99.90;;;;;;5072897;28;20029;-57
2023/05/09 00:09:06;;;;;;;9.23;6.15;;;9.80;99.90;;;;;;5072977;28;20031;-57
2023/05/09 00:11:32;;;;;;;9.77;5.07;;;9.80;99.90;;;;;;5072734;28;20066;-55
2023/05/09 00:13:58;;;;;;;16.98;5.88;;;9.80;99.90;;;;;;5072727;28;20028;-55
2023/05/09 00:16:23;;;;;;;8.80;6.15;;;9.60;94.40;;;;;;5072846;28;20087;-51
2023/05/09 00:18:49;;;;;;;8.40;5.75;;;9.70;99.90;;;;;;5072867;28;20024;-58
2023/05/09 00:21:18;;;;;;;7.15;5.97;;;9.60;99.90;;;;;;5072988;28;20016;-56
2023/05/09 00:23:46;;;;;;;7.10;5.28;;;9.60;99.90;;;;;;5072803;28;20059;-58
2023/05/09 00:26:12;;;;;;;16.08;6.45;;;9.60;99.90;;;;;;5072804;28;20035;-57
2023/05/09 00:28:37;;;;;;;12.70;5.95;;;9.60;99.90;;;;;;5071473;28;20025;-56
2023/05/09 00:31:04;;;;;;;6.95;6.18;;;9.50;99.90;;;;;;5071816;28;20035;-58
2023/05/09 00:33:30;;;;;;;9.85;6.15;;;9.50;99.90;;;;;;5072188;28;20021;-54
2023/05/09 00:35:55;;;;;;;10.48;6.20;;;9.50;99.90;;;;;;5072245;28;20021;-55
2023/05/09 00:38:24;;;;;;;7.47;6.10;;;9.40;99.90;;;;;;5072453;28;20504;-57
2023/05/09 00:40:50;;;;;;;10.70;6.05;;;9.40;99.90;;;;;;5072543;28;20023;-53
2023/05/09 00:43:15;;;;;;;8.15;6.25;;;9.40;99.90;;;;;;5071247;28;20020;-58
2023/05/09 00:45:42;;;;;;;8.27;5.78;;;9.40;99.90;;;;;;5072108;28;20022;-56
2023/05/09 00:48:08;;;;;;;10.38;6.53;;;9.40;1.00;;;;;;5072580;28;20044;-57
2023/05/09 00:50:33;;;;;;;12.20;6.55;;;9.30;1.00;;;;;;5072162;28;20056;-53
2023/05/09 00:52:59;;;;;;;14.50;6.32;;;9.30;1.00;;;;;;5072263;28;20086;-58
2023/05/09 00:55:26;;;;;;;8.90;5.90;;;9.20;1.00;;;;;;5072129;28;20028;-57
2023/05/09 00:57:51;;;;;;;10.80;7.05;;;9.10;1.00;;;;;;5072209;28;20035;-55
2023/05/09 01:00:17;;;;;;;12.68;6.80;;;9.20;1.00;;;;;;5071823;28;20364;-50
2023/05/09 01:02:49;;;;;;;10.90;6.35;;;9.10;1.00;;;;;;5071843;28;20028;-55
2023/05/09 01:05:15;;;;;;;11.98;6.22;;;9.10;1.00;;;;;;5071304;28;20041;-54
2023/05/09 01:08:06;;;;;;;10.05;6.53;;;9.10;1.00;;;;;;5071456;28;20103;-57
2023/05/09 01:10:47;;;;;;;8.35;5.80;;;9.00;25.60;;;;;;5071559;28;20670;-53
2023/05/09 01:13:30;;;;;;;7.32;6.20;;;8.90;92.60;;;;;;5071495;28;20035;-57
2023/05/09 01:15:56;;;;;;;6.85;6.15;;;8.90;99.90;;;;;;5071508;28;20547;-55
2023/05/09 01:18:45;;;;;;;9.68;7.03;;;8.90;99.90;;;;;;5071547;28;20032;-56
2023/05/09 01:21:18;;;;;;;10.32;6.25;;;8.80;99.90;;;;;;5071872;28;20130;-53
2023/05/09 01:23:44;;;;;;;10.63;7.10;;;8.70;99.90;;;;;;5071389;28;20068;-57
2023/05/09 01:26:21;;;;;;;8.27;6.53;;;8.70;99.90;;;;;;5071580;28;20071;-56
2023/05/09 01:28:55;;;;;;;8.95;6.63;;;8.60;99.90;;;;;;5071080;28;20064;-56
2023/05/09 01:31:23;;;;;;;8.52;6.35;;;8.60;99.90;;;;;;5071439;28;20028;-56
2023/05/09 01:33:53;;;;;;;21.30;6.95;;;8.60;99.90;;;;;;5069986;28;20032;-52
2023/05/09 01:36:20;;;;;;;8.75;7.13;;;8.60;99.90;;;;;;5071270;28;20052;-55
2023/05/09 01:38:49;;;;;;;14.38;6.97;;;8.50;99.90;;;;;;5071247;28;20070;-57
2023/05/09 01:41:16;;;;;;;8.88;7.22;;;8.50;99.90;;;;;;5071558;28;20047;-57
2023/05/09 01:43:44;;;;;;;11.40;6.43;;;8.50;99.90;;;;;;5071324;28;20505;-50
2023/05/09 01:46:11;;;;;;;13.57;7.38;;;8.40;99.90;;;;;;5070398;28;20162;-54
2023/05/09 01:48:37;;;;;;;11.55;6.88;;;8.40;99.90;;;;;;5071485;28;20062;-56
2023/05/09 01:51:04;;;;;;;12.30;7.20;;;8.30;99.90;;;;;;5071450;28;20093;-55
2023/05/09 01:53:31;;;;;;;17.00;6.82;;;8.30;99.90;;;;;;5071397;28;20430;-53
2023/05/09 01:55:58;;;;;;;9.25;7.05;;;8.30;99.90;;;;;;5071424;28;20033;-57
2023/05/09 01:58:25;;;;;;;8.27;7.15;;;8.30;99.90;;;;;;5070955;28;20029;-53
2023/05/09 02:00:52;;;;;;;13.70;6.40;;;8.30;99.90;;;;;;5071230;28;20035;-56
2023/05/09 02:03:18;;;;;;;11.35;7.20;;;8.30;99.90;;;;;;5071365;28;20009;-56
2023/05/09 02:05:46;;;;;;;11.82;7.43;;;8.30;99.90;;;;;;5070942;28;20060;-54
2023/05/09 02:08:14;;;;;;;8.25;7.35;;;8.30;1.00;;;;;;5071242;28;20020;-58
2023/05/09 02:10:39;;;;;;;9.05;7.47;;;8.20;1.00;;;;;;5070968;28;20474;-56
2023/05/09 02:13:05;;;;;;;10.27;7.95;;;8.20;1.00;;;;;;5071322;28;20056;-57
2023/05/09 02:15:31;;;;;;;11.65;7.70;;;8.10;1.00;;;;;;5070977;28;20027;-56
2023/05/09 02:17:57;;;;;;;10.43;7.20;;;8.10;1.00;;;;;;5071251;28;20035;-52
2023/05/09 02:20:23;;;;;;;11.15;8.20;;;8.10;1.00;;;;;;5071104;28;20198;-58
2023/05/09 02:22:49;;;;;;;12.77;7.05;;;8.10;1.00;;;;;;5071251;28;20031;-57
2023/05/09 02:25:15;;;;;;;8.98;7.35;;;8.10;1.00;;;;;;5071248;28;20023;-55
2023/05/09 02:27:44;;;;;;;13.57;7.68;;;8.00;1.00;;;;;;5070736;28;20027;-57
2023/05/09 02:30:15;;;;;;;15.52;8.23;;;8.10;1.00;;;;;;5069946;28;20020;-58
2023/05/09 02:32:44;;;;;;;12.50;7.70;;;8.10;1.00;;;;;;5070950;28;20064;-53
2023/05/09 02:35:11;;;;;;;17.30;8.52;;;8.10;1.00;;;;;;5071046;28;20051;-56
2023/05/09 02:37:37;;;;;;;10.63;7.97;;;8.10;1.00;;;;;;5070935;28;20038;-55
2023/05/09 02:40:07;;;;;;;12.30;7.47;;;8.10;1.00;;;;;;5071089;28;20025;-55
2023/05/09 02:42:33;;;;;;;15.10;8.02;;;8.10;1.00;;;;;;5070945;28;20494;-52
2023/05/09 02:44:59;;;;;;;11.15;7.55;;;8.10;1.00;;;;;;5070988;28;20028;-54
2023/05/09 02:47:25;;;;;;;15.55;9.20;;;8.10;1.00;;;;;;5070813;28;20348;-54
2023/05/09 02:49:50;;;;;;;14.25;8.20;;;8.10;1.00;;;;;;5069090;28;20029;-53
2023/05/09 02:52:16;;;;;;;10.27;7.20;;;8.00;1.00;;;;;;5069519;28;20446;-57
2023/05/09 02:54:41;;;;;;;14.02;7.80;;;8.00;1.00;;;;;;5070550;28;20032;-53
2023/05/09 02:57:07;;;;;;;11.80;8.48;;;8.00;1.00;;;;;;5073208;28;20111;-55
2023/05/09 02:59:33;;;;;;;12.07;7.43;;;8.00;1.00;;;;;;5072854;28;20028;-51
2023/05/09 03:01:58;;;;;;;9.48;7.70;;;7.90;1.00;;;;;;5074330;28;20073;-53
2023/05/09 03:04:25;;;;;;;12.02;7.72;;;7.90;1.00;;;;;;5072696;28;20052;-56
2023/05/09 03:06:51;;;;;;;12.85;8.52;;;7.90;1.00;;;;;;5073066;28;20514;-53
2023/05/09 03:09:16;;;;;;;11.82;8.30;;;7.80;1.00;;;;;;5073112;28;20039;-57
2023/05/09 03:11:42;;;;;;;9.57;7.68;;;7.70;1.00;;;;;;5073314;28;20025;-54
2023/05/09 03:14:09;;;;;;;11.38;9.02;;;7.70;1.00;;;;;;5072757;28;20114;-55
2023/05/09 03:16:35;;;;;;;10.95;8.73;;;7.60;1.00;;;;;;5073766;28;20066;-54
2023/05/09 03:19:02;;;;;;;10.48;7.63;;;7.60;1.00;;;;;;5074124;28;20095;-54
2023/05/09 03:21:27;;;;;;;11.20;7.50;;;7.50;1.00;;;;;;5074077;28;20121;-55
2023/05/09 03:23:53;;;;;;;9.73;7.35;;;7.40;1.00;;;;;;5074242;28;20429;-57
2023/05/09 03:26:19;;;;;;;13.88;8.10;;;7.40;1.00;;;;;;5073893;28;20016;-56
2023/05/09 03:28:45;;;;;;;12.23;8.77;;;7.30;1.00;;;;;;5073930;28;20024;-56
2023/05/09 03:31:11;;;;;;;12.23;8.07;;;7.40;1.00;;;;;;5072679;28;20046;-55
2023/05/09 03:33:37;;;;;;;12.73;8.55;;;7.40;1.00;;;;;;5073677;28;20123;-54
2023/05/09 03:36:04;;;;;;;12.40;8.13;;;7.30;1.00;;;;;;5073891;28;20111;-55
2023/05/09 03:38:29;;;;;;;10.60;7.90;;;7.30;1.00;;;;;;5073633;28;20024;-54
2023/05/09 03:40:55;;;;;;;8.80;7.85;;;7.30;1.00;;;;;;5073668;28;20021;-57
2023/05/09 03:43:20;;;;;;;16.63;9.43;;;7.20;1.00;;;;;;5072564;28;20020;-55
2023/05/09 03:45:46;;;;;;;11.75;8.52;;;7.30;1.00;;;;;;5073456;28;20082;-56
2023/05/09 03:48:12;;;;;;;11.93;8.52;;;7.20;1.00;;;;;;5073574;28;20048;-58
2023/05/09 03:50:37;;;;;;;14.15;8.02;;;7.20;1.00;;;;;;5073338;28;20056;-55
2023/05/09 03:53:03;;;;;;;13.63;8.32;;;7.20;1.00;;;;;;5073708;28;20107;-58
2023/05/09 03:55:29;;;;;;;18.63;9.43;;;7.20;1.00;;;;;;5073329;28;20055;-52
2023/05/09 03:57:55;;;;;;;13.60;7.63;;;7.20;1.00;;;;;;5073428;28;20027;-55
2023/05/09 04:00:21;;;;;;;9.85;8.48;;;7.20;1.00;;;;;;5073404;28;20036;-55
2023/05/09 04:02:48;;;;;;;9.63;8.00;;;7.20;1.00;;;;;;5073510;28;20017;-55
2023/05/09 04:05:14;;;;;;;12.30;8.50;;;7.20;1.00;;;;;;5072820;28;20411;-53
2023/05/09 04:07:40;;;;;;;9.50;7.75;;;7.20;1.00;;;;;;5072158;28;20025;-55
2023/05/09 04:10:07;;;;;;;11.50;8.02;;;7.30;1.00;;;;;;5073568;28;20023;-56
2023/05/09 04:12:33;;;;;;;13.35;8.27;;;7.40;1.00;;;;;;5072837;28;20545;-56
2023/05/09 04:14:59;;;;;;;12.10;8.68;;;7.40;1.00;;;;;;5072999;28;20116;-54
2023/05/09 04:17:24;;;;;;;11.20;8.40;;;7.40;1.00;;;;;;5072954;28;20021;-58
2023/05/09 04:19:50;;;;;;;17.55;8.07;;;7.40;1.00;;;;;;5073012;28;20021;-55
2023/05/09 04:22:16;;;;;;;8.07;6.63;;;7.40;1.00;;;;;;5073100;28;20510;-55
2023/05/09 04:24:41;;;;;;;10.98;8.07;;;7.50;1.00;;;;;;5072746;28;20027;-54
2023/05/09 04:27:07;;;;;;;12.02;8.38;;;7.50;1.00;;;;;;5072795;28;20035;-58
2023/05/09 04:29:34;;;;;;;9.43;7.82;;;7.60;1.00;;;;;;5072602;28;20498;-55
2023/05/09 04:32:00;;;;;;;13.52;8.05;;;7.60;1.00;;;;;;5072698;28;20387;-58
2023/05/09 04:34:26;;;;;;;12.48;8.35;;;7.60;1.00;;;;;;5072542;28;20021;-54
2023/05/09 04:36:52;;;;;;;13.00;7.35;;;7.60;1.00;;;;;;5072703;28;20029;-54
2023/05/09 04:39:18;;;;;;;11.48;8.02;;;7.70;1.00;;;;;;5072474;28;20103;-52
2023/05/09 04:41:46;;;;;;;20.70;7.90;;;7.70;1.00;;;;;;5072398;28;20120;-52
2023/05/09 04:44:12;;;;;;;11.85;8.15;;;7.70;1.00;;;;;;5072474;28;20029;-53
2023/05/09 04:46:38;;;;;;;10.35;8.13;;;7.70;1.00;;;;;;5072460;28;20413;-53
2023/05/09 04:49:04;;;;;;;24.88;8.75;;;7.80;1.00;;;;;;5072448;28;20025;-56
2023/05/09 04:51:29;;;;;;;11.65;8.27;;;7.80;1.00;;;;;;5070751;28;20360;-55
2023/05/09 04:53:55;;;;;;;15.32;8.10;;;7.70;1.00;;;;;;5072153;28;20024;-53
2023/05/09 04:56:21;;;;;;;11.73;8.02;;;7.90;1.00;;;;;;5072280;28;20016;-51
2023/05/09 04:58:47;;;;;;;9.82;7.65;;;7.90;1.00;;;;;;5072044;28;20020;-53
2023/05/09 05:01:13;;;;;;;13.40;8.07;;;8.00;99.90;;;;;;5072046;28;20071;-55
2023/05/09 05:03:39;;;;;;;14.27;7.65;;;8.00;1.00;;;;;;5071702;28;20104;-56
2023/05/09 05:06:05;;;;;;;10.90;7.88;;;8.00;1.00;;;;;;5072173;28;20025;-51
2023/05/09 05:08:31;;;;;;;11.48;8.18;;;8.00;1.00;;;;;;5071845;28;20061;-55
2023/05/09 05:10:56;;;;;;;11.13;7.68;;;8.00;1.00;;;;;;5071923;28;20029;-52
2023/05/09 05:13:22;;;;;;;9.75;7.82;;;8.00;1.00;;;;;;5071853;28;20029;-57
2023/05/09 05:15:48;;;;;;;12.60;7.60;;;8.00;1.00;;;;;;5070559;28;20038;-56
2023/05/09 05:18:14;;;;;;;10.95;8.23;;;8.00;1.00;;;;;;5071269;28;20031;-54
2023/05/09 05:20:41;;;;;;;15.38;7.57;;;8.00;1.00;;;;;;5071597;28;20075;-55
2023/05/09 05:23:07;;;;;;;14.77;8.38;;;7.90;1.00;;;;;;5070607;28;20062;-56
2023/05/09 05:25:33;;;;;;;8.30;7.18;;;7.90;1.00;;;;;;5069900;28;20016;-57
2023/05/09 05:27:58;;;;;;;14.45;9.05;;;7.90;1.00;;;;;;5071103;28;20077;-57
2023/05/09 05:30:24;;;;;;;16.45;8.88;;;8.00;1.00;;;;;;5071312;28;20052;-57
2023/05/09 05:32:50;;;;;;;17.95;9.15;;;8.00;1.00;;;;;;5071558;28;20361;-54
2023/05/09 05:35:16;;;;;;;17.35;8.68;;;7.90;1.00;;;;;;5069775;28;20429;-55
2023/05/09 05:37:43;;;;;;;13.35;9.60;;;7.90;1.00;;;;;;5070121;28;20033;-56
2023/05/09 05:40:09;;;;;;;17.88;8.10;;;7.90;1.00;;;;;;5068483;28;20065;-53
2023/05/09 05:42:35;;;;;;;13.18;9.30;;;7.90;1.00;;;;;;5070469;28;20018;-57
2023/05/09 05:45:03;;;;;;;16.30;8.88;;;7.80;1.00;;;;;;5074205;28;20367;-53
2023/05/09 05:47:33;;;;;;;12.70;9.25;;;7.80;1.00;;;;;;5081539;28;20028;-58
2023/05/09 05:49:59;;;;;;;13.27;9.05;;;7.90;1.00;;;;;;5069104;28;20419;-57
2023/05/09 05:52:25;;;;;;;10.00;8.15;;;8.00;1.00;;;;;;5071242;28;20037;-57
2023/05/09 05:54:52;;;;;;;10.40;8.60;;;8.00;1.00;;;;;;5070928;28;20032;-55
2023/05/09 05:57:17;;;;;;;15.48;8.38;;;8.10;1.00;;;;;;5070715;28;20024;-57
2023/05/09 05:59:45;;;;;;;12.38;9.10;;;8.10;1.00;;;;;;5071310;28;20153;-57
2023/05/09 06:02:10;;;;;;;11.57;9.20;;;8.20;1.00;;;;;;5070845;28;20495;-53
2023/05/09 06:04:36;;;;;;;12.02;8.80;;;8.30;1.00;;;;;;5071005;28;20052;-56
2023/05/09 06:07:02;;;;;;;14.27;7.82;;;8.40;1.00;;;;;;5070907;28;20082;-56
2023/05/09 06:09:27;;;;;;;17.30;8.38;;;8.50;99.90;;;;;;5070668;28;20423;-57
2023/05/09 06:11:53;;;;;;;10.55;7.65;;;8.50;99.90;;;;;;5070728;28;20460;-55
2023/05/09 06:14:19;;;;;;;15.30;8.52;;;8.70;1.00;;;;;;5070547;28;20571;-59
2023/05/09 06:16:44;;;;;;;10.65;8.27;;;8.70;99.90;;;;;;5069361;28;20047;-57
2023/05/09 06:19:10;;;;;;;18.20;8.82;;;8.70;99.90;;;;;;5070731;28;20025;-58
2023/05/09 06:21:36;;;;;;;14.00;8.38;;;8.90;99.90;;;;;;5070806;28;20422;-59
2023/05/09 06:24:02;;;;;;;13.90;8.98;;;9.00;1.00;;;;;;5070802;28;20456;-58
2023/05/09 06:26:28;;;;;;;13.40;7.72;;;9.10;99.90;;;;;;5071156;28;20334;-54
2023/05/09 06:28:54;;;;;;;18.17;8.82;;;9.20;99.90;;;;;;5071009;28;20027;-57
2023/05/09 06:31:20;;;;;;;14.30;7.50;;;9.20;99.90;;;;;;5074994;28;20426;-63
2023/05/09 06:33:46;;;;;;;11.73;8.90;;;9.40;99.90;;;;;;5074773;28;20033;-69
2023/05/09 06:36:32;;;;;;;13.35;8.60;;;9.50;99.90;;;;;;5074948;28;20024;-55
2023/05/09 06:38:59;;;;;;;13.98;8.23;;;9.50;99.90;;;;;;5074838;28;20025;-55
2023/05/09 06:41:25;;;;;;;16.92;8.02;;;9.50;99.90;;;;;;5075003;28;20107;-58
2023/05/09 06:43:53;;;;;;;12.55;8.43;;;9.60;99.90;;;;;;5074813;28;20121;-59
2023/05/09 06:46:20;;;;;;;11.60;8.40;;;9.60;99.90;;;;;;5074876;28;20407;-58
2023/05/09 06:48:45;;;;;;;19.88;8.45;;;9.60;95.90;;;;;;5074544;28;20388;-59
2023/05/09 06:51:11;;;;;;;11.85;7.28;;;9.70;99.90;;;;;;5074614;28;20017;-57
2023/05/09 06:53:37;;;;;;;10.18;8.38;;;9.80;99.90;;;;;;5074802;28;20017;-56
2023/05/09 06:56:03;;;;;;;11.73;9.13;;;9.90;99.90;;;;;;5074741;28;20636;-54
2023/05/09 06:58:29;;;;;;;15.52;8.25;;;10.00;99.90;;;;;;5074292;28;20383;-57
2023/05/09 07:00:55;;;;;;;21.30;8.88;;;10.20;88.40;;;;;;5074426;28;20024;-56
2023/05/09 07:03:20;;;;;;;12.27;8.20;;;10.30;99.90;;;;;;5073966;28;20032;-55
2023/05/09 07:05:46;;;;;;;13.57;9.10;;;10.30;1.00;;;;;;5074209;28;20024;-57
2023/05/09 07:08:12;;;;;;;13.98;8.90;;;10.40;26.80;;;;;;5074254;28;20021;-55
2023/05/09 07:10:37;;;;;;;8.82;7.63;;;10.50;1.00;;;;;;5074326;28;20025;-53
2023/05/09 07:13:03;;;;;;;15.40;8.73;;;10.50;99.90;;;;;;5074211;28;20438;-57
2023/05/09 07:15:29;;;;;;;14.40;8.82;;;10.60;1.00;;;;;;5074175;28;20049;-57
2023/05/09 07:21:17;;;;;;;13.30;8.80;;;10.80;1.00;;;;;;5074189;28;20035;-55
2023/05/09 07:24:26;;;;;;;13.95;9.23;;;10.60;1.00;;;;;;5074041;28;20107;-57
2023/05/09 07:26:52;;;;;;;8.35;7.10;;;10.80;99.90;;;;;;5073878;28;20029;-57
2023/05/09 07:29:19;;;;;;;12.38;8.77;;;11.00;99.90;;;;;;5074257;28;20047;-55
2023/05/09 07:31:44;;;;;;;14.05;9.45;;;10.90;1.00;;;;;;5073863;28;20021;-55
2023/05/09 07:34:10;;;;;;;18.90;9.18;;;10.90;1.00;;;;;;5074103;28;20474;-54
2023/05/09 07:36:36;;;;;;;34.88;10.27;;;11.10;1.00;;;;;;5073523;28;20025;-58
2023/05/09 07:39:03;;;;;;;13.15;8.18;;;11.30;32.20;;;;;;5073590;28;20020;-52
2023/05/09 07:41:30;;;;;;;15.95;8.55;;;11.30;58.60;;;;;;5073201;28;20028;-58
2023/05/09 07:43:55;;;;;;;11.00;8.80;;;11.50;99.90;;;;;;5073601;28;20021;-56
2023/05/09 07:46:21;;;;;;;11.48;8.93;;;11.60;1.00;;;;;;5073499;28;20019;-56
2023/05/09 07:48:47;;;;;;;12.45;8.20;;;11.60;99.90;;;;;;5073380;28;20021;-54
2023/05/09 07:51:12;;;;;;;15.30;9.50;;;11.60;1.00;;;;;;5073545;28;20091;-56
2023/05/09 07:53:38;;;;;;;16.00;10.05;;;11.70;97.50;;;;;;5073415;28;20076;-56
2023/05/09 07:56:06;;;;;;;13.98;7.97;;;11.90;99.90;;;;;;5073282;28;20082;-56
2023/05/09 07:58:32;;;;;;;10.75;8.75;;;12.00;99.90;;;;;;5073180;28;20029;-57
2023/05/09 08:00:58;;;;;;;10.50;9.40;;;12.20;99.90;;;;;;5071968;28;20364;-57
2023/05/09 08:03:26;;;;;;;17.77;8.93;;;12.10;33.90;;;;;;5072383;28;20031;-56
2023/05/09 08:05:54;;;;;;;12.60;8.18;;;12.20;1.00;;;;;;5072807;28;20608;-58
2023/05/09 08:08:20;;;;;;;18.95;8.55;;;12.40;1.00;;;;;;5072520;28;20591;-55
2023/05/09 08:10:45;;;;;;;13.52;8.52;;;12.40;99.90;;;;;;5072518;28;20111;-55
2023/05/09 08:13:11;;;;;;;15.77;8.80;;;12.40;1.00;;;;;;5072899;28;20028;-57
2023/05/09 08:15:37;;;;;;;10.80;8.90;;;12.40;99.90;;;;;;5072636;28;20154;-58
2023/05/09 08:18:03;;;;;;;60.60;35.42;;;12.60;1.00;;;;;;5071662;28;20129;-57
2023/05/09 08:20:30;;;;;;;21.42;13.88;;;12.90;1.00;;;;;;5072604;28;20032;-56
2023/05/09 08:22:57;;;;;;;12.07;9.73;;;13.00;53.30;;;;;;5072168;28;20020;-57
2023/05/09 08:25:23;;;;;;;17.75;12.07;;;13.10;99.90;;;;;;5071432;28;20028;-55
2023/05/09 08:27:48;;;;;;;16.85;11.02;;;13.30;99.90;;;;;;5071919;28;20048;-58
2023/05/09 08:30:14;;;;;;;12.88;9.30;;;13.50;99.90;;;;;;5072921;28;20040;-56
2023/05/09 08:32:40;;;;;;;12.52;9.73;;;13.70;99.90;;;;;;5072603;28;20040;-54
2023/05/09 08:35:07;;;;;;;18.63;10.95;;;13.70;1.00;;;;;;5072754;28;20053;-52
2023/05/09 08:37:34;;;;;;;14.52;9.65;;;14.00;99.90;;;;;;5072460;28;20024;-55
2023/05/09 08:40:00;;;;;;;15.52;9.63;;;14.10;1.00;;;;;;5072493;28;20411;-55
2023/05/09 08:42:27;;;;;;;19.00;10.32;;;14.10;58.60;;;;;;5072491;28;20029;-53
2023/05/09 08:44:52;;;;;;;12.52;10.23;;;14.20;1.00;;;;;;5072381;28;20017;-58
2023/05/09 08:47:20;;;;;;;40.78;11.23;;;14.40;95.50;;;;;;5072556;28;20545;-59
2023/05/09 08:49:46;;;;;;;17.52;10.38;;;14.50;99.90;;;;;;5072417;28;20021;-58
2023/05/09 08:52:13;;;;;;;11.98;9.52;;;14.50;99.90;;;;;;5071668;28;20037;-57
2023/05/09 08:54:39;;;;;;;17.48;10.52;;;14.70;98.80;;;;;;5072205;28;20032;-55
2023/05/09 08:57:05;;;;;;;15.35;10.07;;;14.40;1.00;;;;;;5072196;28;20029;-54
2023/05/09 08:59:33;;;;;;;17.92;10.05;;;14.40;99.90;;;;;;5071967;28;20028;-55
2023/05/09 09:02:00;;;;;;;14.20;9.60;;;14.30;99.90;;;;;;5072183;28;20063;-56
2023/05/09 09:04:25;;;;;;;11.48;9.38;;;14.70;99.90;;;;;;5072042;28;20064;-58
2023/05/09 09:06:53;;;;;;;15.38;10.10;;;14.70;99.90;;;;;;5028228;28;20489;-59
2023/05/09 09:09:19;;;;;;;17.80;10.68;;;15.00;1.00;;;;;;5025193;28;20500;-59
2023/05/09 09:11:46;;;;;;;14.07;10.48;;;15.10;99.90;;;;;;5022921;28;20045;-58
2023/05/09 09:14:19;;;;;;;14.80;9.95;;;15.30;99.90;;;;;;5027408;28;20029;-59
2023/05/09 09:16:47;;;;;;;17.23;10.30;;;15.60;99.90;;;;;;5022962;28;20043;-58
2023/05/09 09:19:16;;;;;;;25.90;11.45;;;15.70;99.90;;;;;;5021941;28;20132;-59
2023/05/09 09:21:46;;;;;;;15.77;10.38;;;15.70;99.90;;;;;;5027201;28;20033;-59
2023/05/09 09:24:12;;;;;;;15.35;9.60;;;16.10;1.00;;;;;;5024791;28;20125;-57
2023/05/09 09:26:48;;;;;;;15.80;10.75;;;16.20;23.40;;;;;;5024979;28;20084;-58
2023/05/09 09:29:15;;;;;;;13.48;10.77;;;16.20;1.00;;;;;;5023641;28;20033;-59
2023/05/09 09:31:44;;;;;;;15.02;9.55;;;16.00;1.00;;;;;;5022153;28;20416;-59
2023/05/09 09:34:13;;;;;;;15.52;10.95;;;16.00;65.40;;;;;;5021100;28;20033;-59
2023/05/09 09:36:39;;;;;;;15.38;11.40;;;16.20;99.90;;;;;;5028150;28;20049;-54
2023/05/09 09:39:05;;;;;;;15.07;9.95;;;16.50;1.00;;;;;;5024567;28;20056;-58
2023/05/09 09:41:35;;;;;;;15.65;11.10;;;16.70;99.90;;;;;;5023245;28;20455;-59
2023/05/09 09:44:15;;;;;;;20.10;10.52;;;16.80;1.00;;;;;;5026887;28;20034;-58
2023/05/09 09:46:54;;;;;;;13.20;10.57;;;16.80;99.90;;;;;;5021960;28;20025;-58
2023/05/09 09:49:25;;;;;;;21.27;10.40;;;16.80;99.90;;;;;;5026946;28;20044;-59
2023/05/09 09:51:51;;;;;;;20.65;10.63;;;17.10;39.40;;;;;;5021009;28;20361;-59
2023/05/09 09:54:17;;;;;;;23.70;10.27;;;17.10;99.90;;;;;;5022078;28;20365;-59
2023/05/09 09:57:07;;;;;;;11.30;9.50;;;17.30;99.90;;;;;;5020882;28;20404;-59
2023/05/09 09:59:33;;;;;;;13.55;9.98;;;17.30;99.90;;;;;;5022175;28;20068;-59
2023/05/09 10:02:11;;;;;;;15.15;10.30;;;17.30;99.90;;;;;;5030216;28;20449;-58
2023/05/09 10:04:38;;;;;;;17.48;11.10;;;17.60;1.00;;;;;;5043901;28;20076;-59
2023/05/09 10:07:06;;;;;;;13.82;11.32;;;17.70;1.00;;;;;;5055191;28;20108;-58
2023/05/09 10:09:33;;;;;;;11.30;10.10;;;18.00;1.00;;;;;;5053736;28;20033;-58
2023/05/09 10:12:03;;;;;;;15.95;10.98;;;17.70;1.00;;;;;;5054610;28;20029;-59
2023/05/09 10:14:30;;;;;;;13.65;10.48;;;17.80;68.90;;;;;;5055209;28;20071;-58
2023/05/09 10:16:57;;;;;;;14.35;9.35;;;18.00;1.00;;;;;;5055303;28;20718;-59
2023/05/09 10:19:26;;;;;;;20.00;10.98;;;18.00;1.00;;;;;;5054531;28;20037;-57
2023/05/09 10:22:03;;;;;;;22.98;10.63;;;18.20;1.00;;;;;;5054986;28;20426;-55
2023/05/09 10:24:34;;;;;;;16.38;10.63;;;18.20;99.90;;;;;;5054529;28;20025;-56
2023/05/09 10:27:11;;;;;;;39.55;10.35;;;18.10;99.90;;;;;;5053743;28;20024;-59
2023/05/09 10:29:45;;;;;;;15.93;11.40;;;18.60;99.90;;;;;;5053548;28;20388;-58
2023/05/09 10:32:26;;;;;;;13.68;11.10;;;18.90;99.90;;;;;;5053764;28;20059;-56
2023/05/09 10:34:57;;;;;;;21.08;11.20;;;18.80;99.90;;;;;;5053738;28;20025;-52
2023/05/09 10:37:23;;;;;;;12.60;10.60;;;18.70;99.90;;;;;;5053531;28;20029;-56
2023/05/09 10:39:54;;;;;;;13.38;10.45;;;18.70;64.20;;;;;;5053344;28;20032;-58
2023/05/09 10:42:21;;;;;;;17.40;11.07;;;18.90;1.00;;;;;;5054172;28;20016;-57
2023/05/09 10:44:48;;;;;;;15.90;10.55;;;19.00;74.30;;;;;;5052932;28;20048;-58
2023/05/09 10:47:14;;;;;;;18.35;10.85;;;19.00;85.80;;;;;;5054036;28;20047;-57
2023/05/09 10:49:42;;;;;;;26.05;10.65;;;19.20;76.00;;;;;;5054667;28;20032;-58
2023/05/09 10:52:07;;;;;;;13.82;11.43;;;19.20;1.00;;;;;;5054720;28;20055;-58
2023/05/09 10:54:35;;;;;;;21.77;11.63;;;19.00;1.00;;;;;;5054659;28;20029;-58
2023/05/09 10:57:02;;;;;;;27.98;11.27;;;19.30;9.30;;;;;;5054611;28;20025;-58
2023/05/09 10:59:36;;;;;;;20.63;9.55;;;19.60;99.90;;;;;;5053148;28;20079;-55
2023/05/09 11:02:03;;;;;;;14.75;10.77;;;19.70;67.60;;;;;;5052934;28;20082;-57
2023/05/09 11:04:31;;;;;;;17.60;10.93;;;19.90;1.00;;;;;;5053619;28;20101;-54
2023/05/09 11:07:00;;;;;;;21.25;11.80;;;20.30;1.00;;;;;;5054703;28;20017;-58
2023/05/09 11:09:37;;;;;;;18.00;10.82;;;20.20;1.00;;;;;;5056285;28;20028;-58
2023/05/09 11:12:06;;;;;;;15.02;11.50;;;20.40;1.00;;;;;;5052867;28;20073;-58
2023/05/09 11:14:31;;;;;;;17.25;10.27;;;20.50;1.00;;;;;;5053666;28;20021;-58
2023/05/09 11:16:59;;;;;;;23.30;10.95;;;20.30;99.90;;;;;;5052899;28;20552;-58
2023/05/09 11:20:00;;;;;;;13.27;10.20;;;20.30;1.00;;;;;;5053219;28;20090;-58
2023/05/09 11:22:31;;;;;;;15.05;11.68;;;20.70;99.90;;;;;;5054051;28;20108;-55
2023/05/09 11:25:06;;;;;;;14.85;11.13;;;20.70;99.90;;;;;;5053669;28;20025;-56
2023/05/09 11:27:46;;;;;;;17.25;11.52;;;20.70;99.90;;;;;;5053488;28;20029;-57
2023/05/09 11:30:14;;;;;;;15.07;11.52;;;20.70;99.90;;;;;;5053545;28;20052;-58
2023/05/09 11:32:54;;;;;;;17.23;11.95;;;20.70;99.90;;;;;;5053924;28;20108;-59
2023/05/09 11:35:21;;;;;;;14.38;10.35;;;20.90;99.90;;;;;;5053811;28;20051;-58
2023/05/09 11:37:53;;;;;;;21.23;10.35;;;21.20;99.90;;;;;;5053057;28;20116;-58
2023/05/09 11:40:21;;;;;;;15.43;10.27;;;21.00;99.90;;;;;;5053499;28;20021;-58
2023/05/09 11:42:52;;;;;;;14.30;10.02;;;20.40;99.90;;;;;;5053389;28;20384;-58
2023/05/09 11:45:19;;;;;;;12.55;11.10;;;21.00;99.90;;;;;;5053871;28;20021;-59
2023/05/09 11:47:48;;;;;;;20.05;11.23;;;21.40;99.90;;;;;;5053308;28;20107;-58
2023/05/09 11:50:16;;;;;;;13.88;10.45;;;22.10;99.90;;;;;;5053359;28;20017;-57
2023/05/09 11:52:42;;;;;;;26.52;11.60;;;22.20;55.30;;;;;;5053254;28;20045;-58
2023/05/09 11:55:10;;;;;;;14.60;10.48;;;23.10;1.00;;;;;;5053225;28;20078;-59
2023/05/09 11:57:51;;;;;;;14.07;9.10;;;23.50;1.00;;;;;;5052955;28;20044;-59
2023/05/09 12:00:19;;;;;;;11.82;9.63;;;24.40;1.00;;;;;;5053272;28;20403;-59
2023/05/09 12:02:45;;;;;;;15.27;9.90;;;24.90;1.00;;;;;;5053286;28;20029;-59
2023/05/09 12:05:21;;;;;;;12.20;9.50;;;25.20;1.00;;;;;;5053047;28;20048;-59
2023/05/09 12:07:47;;;;;;;13.68;8.65;;;25.30;1.00;;;;;;5052725;28;20025;-59
2023/05/09 12:10:18;;;;;;;17.02;8.70;;;25.70;1.00;;;;;;5051901;28;20028;-59
2023/05/09 12:12:46;;;;;;;17.42;10.00;;;24.90;1.00;;;;;;5052880;28;20032;-60
2023/05/09 12:15:12;;;;;;;16.08;9.27;;;25.60;1.00;;;;;;5053087;28;20025;-60
2023/05/09 12:17:40;;;;;;;12.80;9.45;;;26.50;1.00;;;;;;5052369;28;20468;-59
2023/05/09 12:20:06;;;;;;;10.63;8.93;;;26.60;1.00;;;;;;5052445;28;20040;-60
2023/05/09 12:22:33;;;;;;;19.88;9.48;;;27.00;1.00;;;;;;5052506;28;20071;-59
2023/05/09 12:25:01;;;;;;;14.40;8.75;;;27.30;1.00;;;;;;5052578;28;20021;-59
2023/05/09 12:27:28;;;;;;;14.52;9.77;;;27.20;99.90;;;;;;5051450;28;20021;-59
2023/05/09 12:29:54;;;;;;;11.27;8.10;;;26.10;99.90;;;;;;5052551;28;20434;-59
2023/05/09 12:32:20;;;;;;;15.90;9.52;;;26.80;1.00;;;;;;5053677;28;20487;-59
2023/05/09 12:34:50;;;;;;;11.07;8.90;;;27.00;1.00;;;;;;5052085;28;20036;-59
2023/05/09 12:37:17;;;;;;;12.25;7.70;;;27.20;1.00;;;;;;5052158;28;20017;-59
2023/05/09 12:40:05;;;;;;;12.32;8.45;;;27.00;99.90;;;;;;5052263;28;20385;-59
2023/05/09 12:42:34;;;;;;;22.60;10.75;;;27.40;1.00;;;;;;5051918;28;20033;-59
2023/05/09 12:45:01;;;;;;;13.15;7.45;;;27.40;99.90;;;;;;5052383;28;20017;-59
2023/05/09 12:47:31;;;;;;;14.98;8.73;;;28.10;99.90;;;;;;5052160;28;20100;-59
2023/05/09 12:50:04;;;;;;;15.98;9.10;;;27.20;1.00;;;;;;5050952;28;20475;-59
2023/05/09 12:52:35;;;;;;;10.48;8.95;;;27.10;1.00;;;;;;5052077;28;20457;-59